Time;durP1;ratioP1;P1;durP2;ratioP2;P2;SDS_P1;SDS_P2;PMS_P1;PMS_P2;Temp;Humidity;BMP_temperature;BMP_pressure;BME280_temperature;BME280_humidity;BME280_pressure;Samples;Min_cycle;Max_cycle;Signal;HPM_P1;HPM_P2
2022/06/11 00:02:02;;;;;;;2.80;0.50;;;;;;;13.50;100.00;99902.25;7397854;19;20346;-80
2022/06/11 00:04:30;;;;;;;0.82;0.80;;;;;;;13.46;100.00;99904.50;7390883;19;20037;-79
2022/06/11 00:07:00;;;;;;;14.20;1.20;;;;;;;13.42;100.00;99908.78;7394348;19;20022;-79
2022/06/11 00:09:26;;;;;;;0.77;0.38;;;;;;;13.46;100.00;99906.53;7393143;19;20130;-79
2022/06/11 00:11:53;;;;;;;0.55;0.55;;;;;;;13.45;100.00;99905.75;7398146;19;20167;-80
2022/06/11 00:14:23;;;;;;;1.60;0.40;;;;;;;13.45;100.00;99908.56;7392956;19;20022;-80
2022/06/11 00:16:49;;;;;;;1.08;0.57;;;;;;;13.45;100.00;99902.97;7393741;19;20018;-79
2022/06/11 00:19:18;;;;;;;7.47;0.65;;;;;;;13.49;100.00;99909.09;7393124;19;20110;-79
2022/06/11 00:21:45;;;;;;;1.35;0.50;;;;;;;13.44;100.00;99904.25;7396629;19;20019;-79
2022/06/11 00:24:12;;;;;;;1.48;0.47;;;;;;;13.45;100.00;99908.56;7393232;19;20480;-79
2022/06/11 00:26:42;;;;;;;0.32;0.32;;;;;;;13.47;100.00;99914.44;7392154;19;20023;-79
2022/06/11 00:29:10;;;;;;;0.55;0.55;;;;;;;13.50;100.00;99915.47;7392949;19;20006;-79
2022/06/11 00:31:37;;;;;;;2.53;0.68;;;;;;;13.51;100.00;99919.81;7395276;19;20336;-79
2022/06/11 00:34:03;;;;;;;5.68;1.08;;;;;;;13.47;100.00;99911.63;7392581;19;20018;-79
2022/06/11 00:36:30;;;;;;;0.47;0.32;;;;;;;13.39;100.00;99918.94;7393697;19;20464;-79
2022/06/11 00:38:57;;;;;;;0.38;0.38;;;;;;;13.36;100.00;99917.09;7391552;19;20022;-79
2022/06/11 00:41:26;;;;;;;9.63;1.05;;;;;;;13.32;100.00;99919.34;7396675;19;20018;-79
2022/06/11 00:43:53;;;;;;;6.95;0.60;;;;;;;13.28;100.00;99918.81;7392482;19;20026;-79
2022/06/11 00:46:50;;;;;;;0.57;0.22;;;;;;;13.28;100.00;99910.41;7391419;19;20018;-80
2022/06/11 00:49:41;;;;;;;4.05;0.70;;;;;;;13.26;100.00;99929.72;7392595;19;20015;-80
2022/06/11 00:52:19;;;;;;;7.68;1.05;;;;;;;13.33;100.00;99920.91;7397240;19;20025;-79
2022/06/11 00:55:19;;;;;;;0.65;0.50;;;;;;;13.36;100.00;99922.69;7391736;19;20022;-79
2022/06/11 00:58:07;;;;;;;5.63;0.75;;;;;;;13.34;100.00;99925.22;7392694;19;20042;-79
2022/06/11 01:00:47;;;;;;;2.78;1.13;;;;;;;13.19;100.00;99929.41;7391799;19;20023;-79
2022/06/11 01:03:18;;;;;;;3.55;0.47;;;;;;;13.08;100.00;99929.28;7408709;19;20014;-79
2022/06/11 01:05:51;;;;;;;2.97;1.05;;;;;;;12.98;100.00;99930.63;7395286;19;20011;-80
2022/06/11 01:08:34;;;;;;;2.75;1.13;;;;;;;12.88;100.00;99933.59;7392193;19;20025;-79
2022/06/11 01:11:15;;;;;;;11.52;1.95;;;;;;;12.80;100.00;99926.09;7392849;19;20010;-80
2022/06/11 01:14:00;;;;;;;2.75;0.63;;;;;;;12.77;100.00;99933.44;7389407;19;20031;-79
2022/06/11 01:16:39;;;;;;;0.40;0.30;;;;;;;12.67;100.00;99929.22;7391640;19;20055;-79
2022/06/11 01:19:25;;;;;;;1.85;0.77;;;;;;;12.63;100.00;99933.50;7391833;19;20434;-79
2022/06/11 01:22:28;;;;;;;13.43;0.73;;;;;;;12.55;100.00;99938.72;7394411;19;20019;-80
2022/06/11 01:25:15;;;;;;;1.10;0.68;;;;;;;12.44;100.00;99930.19;7390206;19;20010;-79
2022/06/11 01:28:09;;;;;;;0.30;0.30;;;;;;;12.36;100.00;99933.88;7392318;19;20011;-79
2022/06/11 01:30:45;;;;;;;2.15;0.70;;;;;;;12.30;100.00;99931.00;7392087;19;20031;-79
2022/06/11 01:33:25;;;;;;;1.33;0.60;;;;;;;12.19;100.00;99934.38;7391824;19;20024;-79
2022/06/11 01:36:06;;;;;;;4.65;1.15;;;;;;;12.13;100.00;99925.16;7390287;19;20025;-79
2022/06/11 01:38:51;;;;;;;0.93;0.68;;;;;;;12.08;100.00;99927.88;7390459;19;20011;-79
2022/06/11 01:41:27;;;;;;;3.53;0.30;;;;;;;12.06;100.00;99919.97;7393511;19;20012;-80
2022/06/11 01:44:09;;;;;;;3.05;0.70;;;;;;;12.02;100.00;99913.03;7389242;19;20086;-79
2022/06/11 01:46:40;;;;;;;5.25;0.63;;;;;;;11.99;100.00;99908.44;7392002;19;20035;-79
2022/06/11 01:49:26;;;;;;;0.95;0.57;;;;;;;11.93;100.00;99911.13;7389344;19;20134;-80
2022/06/11 01:52:22;;;;;;;0.30;0.30;;;;;;;11.91;100.00;99912.91;7395157;19;20322;-79
2022/06/11 01:55:01;;;;;;;5.13;1.00;;;;;;;11.88;100.00;99919.44;7387696;19;20422;-79
2022/06/11 01:57:55;;;;;;;5.32;1.00;;;;;;;11.85;100.00;99914.81;7391151;19;20360;-79
2022/06/11 02:00:21;;;;;;;2.28;0.50;;;;;;;11.83;100.00;99918.09;7390663;19;20006;-79
2022/06/11 02:03:24;;;;;;;1.67;0.35;;;;;;;11.85;100.00;99915.59;7391158;19;20045;-79
2022/06/11 02:06:02;;;;;;;2.92;0.82;;;;;;;11.88;100.00;99911.84;7390950;19;20055;-79
2022/06/11 02:08:47;;;;;;;2.78;0.38;;;;;;;11.91;100.00;99913.66;7390989;19;20010;-79
2022/06/11 02:11:22;;;;;;;0.30;0.30;;;;;;;11.97;100.00;99913.75;7393406;19;20011;-79
2022/06/11 02:14:44;;;;;;;0.35;0.35;;;;;;;12.00;100.00;99910.75;7390027;19;20011;-79
2022/06/11 02:17:15;;;;;;;6.25;1.17;;;;;;;11.94;100.00;99918.28;7388759;19;20034;-79
2022/06/11 02:19:44;;;;;;;3.03;0.50;;;;;;;11.92;100.00;99923.56;7390256;19;20388;-79
2022/06/11 02:22:16;;;;;;;0.40;0.38;;;;;;;11.87;100.00;99929.81;7394420;19;20022;-79
2022/06/11 02:24:49;;;;;;;5.35;0.95;;;;;;;11.87;100.00;99929.81;7388753;19;20578;-80
2022/06/11 02:27:24;;;;;;;1.40;0.82;;;;;;;11.87;100.00;99934.63;7390128;19;20022;-80
2022/06/11 02:29:53;;;;;;;6.78;1.52;;;;;;;11.88;100.00;99934.16;7395234;19;20583;-79
2022/06/11 02:32:22;;;;;;;10.10;2.03;;;;;;;11.86;100.00;99933.88;7396429;19;20347;-79
2022/06/11 02:34:54;;;;;;;14.02;0.95;;;;;;;11.83;100.00;99929.25;7395730;19;20026;-79
2022/06/11 02:37:39;;;;;;;1.27;0.63;;;;;;;11.86;100.00;99922.72;7396154;19;20033;-80
2022/06/11 02:40:15;;;;;;;0.30;0.30;;;;;;;11.94;100.00;99928.66;7397515;19;20015;-80
2022/06/11 02:42:42;;;;;;;3.92;0.50;;;;;;;12.01;100.00;99928.28;7397228;19;20041;-80
2022/06/11 02:45:12;;;;;;;5.45;0.40;;;;;;;12.10;100.00;99926.16;7393700;19;20086;-79
2022/06/11 02:47:42;;;;;;;4.30;0.65;;;;;;;12.17;100.00;99931.31;7397313;19;20037;-80
2022/06/11 02:50:15;;;;;;;4.95;0.47;;;;;;;12.26;100.00;99921.31;7396141;19;20029;-80
2022/06/11 02:52:42;;;;;;;1.13;0.47;;;;;;;12.36;100.00;99925.50;7398345;19;20033;-80
2022/06/11 02:55:09;;;;;;;0.30;0.30;;;;;;;12.47;100.00;99931.25;7395448;19;20018;-80
2022/06/11 02:57:35;;;;;;;0.90;0.68;;;;;;;12.59;100.00;99918.97;7395293;19;20018;-80
2022/06/11 03:00:05;;;;;;;13.20;0.70;;;;;;;12.76;100.00;99925.53;7395309;19;20015;-79
2022/06/11 03:02:31;;;;;;;9.05;1.85;;;;;;;12.86;100.00;99926.94;7396797;19;20023;-80
2022/06/11 03:04:57;;;;;;;4.30;0.57;;;;;;;13.01;100.00;99919.25;7395076;19;20078;-80
2022/06/11 03:07:24;;;;;;;1.02;0.43;;;;;;;13.12;100.00;99925.00;7395233;19;20022;-80
2022/06/11 03:09:50;;;;;;;9.65;1.13;;;;;;;13.17;100.00;99926.31;7393590;19;20018;-80
2022/06/11 03:12:16;;;;;;;2.10;1.15;;;;;;;13.15;100.00;99928.81;7396999;19;20022;-79
2022/06/11 03:14:43;;;;;;;0.63;0.60;;;;;;;13.10;100.00;99932.34;7394918;19;20025;-80
2022/06/11 03:17:12;;;;;;;5.07;0.57;;;;;;;13.00;100.00;99942.88;7396797;19;20014;-80
2022/06/11 03:19:39;;;;;;;1.00;0.73;;;;;;;12.88;100.00;99932.81;7396365;19;20077;-80
2022/06/11 03:22:07;;;;;;;6.93;1.70;;;;;;;12.79;100.00;99938.53;7400904;19;20021;-80
2022/06/11 03:24:34;;;;;;;11.13;0.88;;;;;;;12.68;100.00;99938.38;7393533;19;20075;-80
2022/06/11 03:27:01;;;;;;;0.65;0.57;;;;;;;12.58;100.00;99942.59;7394734;19;20018;-79
2022/06/11 03:29:27;;;;;;;1.05;0.60;;;;;;;12.49;100.00;99939.91;7395146;19;20479;-80
2022/06/11 03:31:54;;;;;;;1.00;0.47;;;;;;;12.47;100.00;99943.19;7397161;19;20014;-79
2022/06/11 03:34:21;;;;;;;1.60;0.35;;;;;;;12.45;100.00;99942.16;7394092;19;20085;-80
2022/06/11 03:36:52;;;;;;;9.45;0.75;;;;;;;12.45;100.00;99950.53;7394295;19;20017;-80
2022/06/11 03:39:18;;;;;;;4.75;0.60;;;;;;;12.38;100.00;99956.50;7395195;19;20070;-79
2022/06/11 03:41:45;;;;;;;1.17;0.63;;;;;;;12.32;100.00;99952.88;7397346;19;20092;-80
2022/06/11 03:44:12;;;;;;;6.10;1.33;;;;;;;12.30;100.00;99958.16;7394692;19;20029;-79
2022/06/11 03:46:38;;;;;;;0.73;0.45;;;;;;;12.28;100.00;99958.63;7395980;19;20018;-80
2022/06/11 03:49:04;;;;;;;4.88;0.65;;;;;;;12.26;100.00;99957.59;7393556;19;21836;-79
2022/06/11 03:51:30;;;;;;;6.57;0.85;;;;;;;12.26;100.00;99963.19;7398479;19;20022;-79
2022/06/11 03:53:56;;;;;;;2.22;0.73;;;;;;;12.23;100.00;99964.91;7396084;19;20030;-79
2022/06/11 03:56:24;;;;;;;4.93;0.77;;;;;;;12.17;100.00;99959.22;7393585;19;20022;-79
2022/06/11 03:58:53;;;;;;;6.55;0.55;;;;;;;12.12;100.00;99962.72;7397570;19;20479;-79
2022/06/11 04:01:19;;;;;;;7.43;1.45;;;;;;;12.10;100.00;99962.44;7412184;19;20022;-79
2022/06/11 04:03:51;;;;;;;0.25;0.25;;;;;;;12.08;100.00;99964.91;7397483;19;20484;-79
2022/06/11 04:06:34;;;;;;;1.38;0.80;;;;;;;12.04;100.00;99972.72;7395852;19;20015;-80
2022/06/11 04:09:00;;;;;;;0.65;0.52;;;;;;;12.02;100.00;99964.06;7392307;19;20048;-79
2022/06/11 04:11:27;;;;;;;3.55;0.55;;;;;;;12.00;100.00;99958.19;7397829;19;20029;-79
2022/06/11 04:13:54;;;;;;;0.35;0.35;;;;;;;12.00;100.00;99963.00;7393041;19;20409;-80
2022/06/11 04:16:32;;;;;;;0.90;0.35;;;;;;;12.01;100.00;99961.78;7392496;19;20364;-79
2022/06/11 04:19:03;;;;;;;17.45;0.93;;;;;;;11.99;100.00;99969.84;7392475;19;20010;-79
2022/06/11 04:21:32;;;;;;;0.80;0.60;;;;;;;11.97;100.00;99964.75;7397534;19;20380;-79
2022/06/11 04:24:00;;;;;;;2.08;0.30;;;;;;;11.97;100.00;99973.13;7393348;19;20588;-80
2022/06/11 04:26:32;;;;;;;1.77;0.55;;;;;;;11.97;100.00;99981.50;7394356;19;20352;-79
2022/06/11 04:29:00;;;;;;;1.80;0.52;;;;;;;11.96;100.00;99973.59;7393339;19;20027;-80
2022/06/11 04:31:28;;;;;;;4.13;0.38;;;;;;;11.95;100.00;99975.63;7396074;19;20376;-79
2022/06/11 04:33:55;;;;;;;1.08;0.47;;;;;;;11.96;100.00;99973.59;7393297;19;20073;-79
2022/06/11 04:36:24;;;;;;;0.63;0.20;;;;;;;11.99;100.00;99976.22;7393796;19;20034;-80
2022/06/11 04:38:50;;;;;;;0.10;0.10;;;;;;;12.03;100.00;99979.56;7392670;19;20018;-79
2022/06/11 04:41:17;;;;;;;0.80;0.80;;;;;;;12.01;100.00;99984.88;7394304;19;20022;-79
2022/06/11 04:43:43;;;;;;;4.40;0.45;;;;;;;12.05;100.00;99985.44;7392258;19;20022;-79
2022/06/11 04:46:10;;;;;;;0.25;0.20;;;;;;;12.05;100.00;99990.25;7392997;19;20039;-79
2022/06/11 04:48:37;;;;;;;3.30;1.08;;;;;;;12.03;100.00;99999.13;7391148;19;20029;-79
2022/06/11 04:51:03;;;;;;;0.40;0.40;;;;;;;12.01;100.00;100001.63;7390184;19;20583;-80
2022/06/11 04:53:29;;;;;;;5.93;0.63;;;;;;;12.03;100.00;99998.34;7391099;19;20022;-80
2022/06/11 04:55:56;;;;;;;0.35;0.35;;;;;;;12.07;100.00;100010.84;7393048;19;20011;-79
2022/06/11 04:58:22;;;;;;;0.32;0.30;;;;;;;12.08;100.00;100017.97;7392716;19;20014;-82
2022/06/11 05:00:49;;;;;;;2.20;0.60;;;;;;;12.12;100.00;100026.16;7393023;19;20100;-80
2022/06/11 05:03:15;;;;;;;0.57;0.40;;;;;;;12.18;100.00;100021.44;7393133;19;20042;-79
2022/06/11 05:05:42;;;;;;;0.95;0.55;;;;;;;12.28;100.00;100024.91;7391723;19;20014;-79
2022/06/11 05:08:11;;;;;;;3.67;0.65;;;;;;;12.40;100.00;100030.19;7390851;19;20341;-80
2022/06/11 05:10:39;;;;;;;1.95;0.82;;;;;;;12.54;100.00;100034.22;7391010;19;20403;-79
2022/06/11 05:13:07;;;;;;;14.02;1.48;;;;;;;12.55;100.00;100028.13;7390445;19;20021;-80
2022/06/11 05:15:34;;;;;;;2.17;0.40;;;;;;;12.57;100.00;100030.44;7390444;19;20019;-79
2022/06/11 05:18:01;;;;;;;0.10;0.10;;;;;;;12.59;100.00;100025.13;7390569;19;20086;-80
2022/06/11 05:20:27;;;;;;;0.68;0.55;;;;;;;12.64;100.00;100024.44;7393677;19;20055;-80
2022/06/11 05:22:53;;;;;;;1.52;0.68;;;;;;;12.72;100.00;100031.16;7396718;19;20019;-79
2022/06/11 05:25:20;;;;;;;1.40;0.90;;;;;;;12.76;100.00;100020.53;7390872;19;20015;-80
2022/06/11 05:27:47;;;;;;;0.40;0.10;;;;;;;12.84;100.00;100016.09;7390740;19;20034;-79
2022/06/11 05:30:22;;;;;;;1.35;0.63;;;;;;;12.88;100.00;100009.06;7391846;19;20618;-80
2022/06/11 05:32:49;;;;;;;3.60;0.65;;;;;;;12.96;100.00;100015.00;7391622;19;20025;-80
2022/06/11 05:35:20;;;;;;;0.38;0.30;;;;;;;13.02;100.00;100007.44;7390616;19;20014;-79
2022/06/11 05:37:49;;;;;;;7.00;0.95;;;;;;;13.12;100.00;100008.13;7392093;19;20468;-80
2022/06/11 05:40:18;;;;;;;4.45;1.08;;;;;;;13.19;100.00;100002.13;7391930;19;20373;-80
2022/06/11 05:42:47;;;;;;;4.32;0.90;;;;;;;13.28;100.00;99999.16;7390511;19;20038;-80
2022/06/11 05:45:20;;;;;;;1.35;1.20;;;;;;;13.38;100.00;100009.69;7388218;19;20011;-80
2022/06/11 05:47:49;;;;;;;7.07;1.48;;;;;;;13.42;100.00;99999.09;7390094;19;20015;-79
2022/06/11 05:50:20;;;;;;;0.82;0.68;;;;;;;13.49;100.00;99993.03;7389190;19;20531;-80
2022/06/11 05:52:46;;;;;;;2.63;0.20;;;;;;;13.60;100.00;99998.75;7390823;19;20503;-80
2022/06/11 05:55:17;;;;;;;8.48;1.73;;;;;;;13.75;100.00;100000.69;7388138;19;20029;-80
2022/06/11 05:57:47;;;;;;;2.00;0.47;;;;;;;13.91;100.00;100000.06;7391346;19;20018;-80
2022/06/11 06:00:17;;;;;;;6.25;0.45;;;;;;;13.98;100.00;99996.84;7392139;19;20018;-80
2022/06/11 06:02:45;;;;;;;1.00;1.00;;;;;;;14.02;100.00;100000.19;7392653;19;20501;-80
2022/06/11 06:05:15;;;;;;;9.43;1.00;;;;;;;13.97;100.00;99992.50;7394783;19;20019;-79
2022/06/11 06:07:41;;;;;;;2.35;0.80;;;;;;;14.08;100.00;100009.41;7396890;19;20027;-80
2022/06/11 06:10:08;;;;;;;1.25;0.52;;;;;;;14.19;100.00;100009.50;7395880;19;20090;-80
2022/06/11 06:12:36;;;;;;;2.47;0.80;;;;;;;14.26;100.00;100014.66;7397755;19;20355;-80
2022/06/11 06:15:15;;;;;;;4.22;0.55;;;;;;;14.30;100.00;100007.59;7394810;19;20018;-79
2022/06/11 06:17:42;;;;;;;0.60;0.60;;;;;;;14.39;100.00;100006.63;7396677;19;20037;-80
2022/06/11 06:20:12;;;;;;;3.10;0.47;;;;;;;14.55;100.00;100006.00;7397461;19;20018;-80
2022/06/11 06:22:40;;;;;;;0.50;0.45;;;;;;;14.64;100.00;100005.78;7395954;19;20098;-79
2022/06/11 06:25:07;;;;;;;4.78;0.45;;;;;;;14.68;100.00;100011.94;7393886;19;20026;-80
2022/06/11 06:27:33;;;;;;;3.83;0.20;;;;;;;14.77;100.00;100003.31;7397810;19;20022;-80
2022/06/11 06:29:59;;;;;;;1.75;1.00;;;;;;;14.86;100.00;100010.75;7396276;19;20018;-79
2022/06/11 06:32:26;;;;;;;0.25;0.25;;;;;;;15.04;100.00;100004.75;7396168;19;20018;-80
2022/06/11 06:34:52;;;;;;;0.47;0.47;;;;;;;15.10;100.00;100006.31;7396151;19;20017;-79
2022/06/11 06:37:18;;;;;;;0.98;0.52;;;;;;;15.30;100.00;100011.00;7396556;19;20507;-79
2022/06/11 06:39:44;;;;;;;0.10;0.10;;;;;;;15.39;100.00;100012.81;7396654;19;20014;-79
2022/06/11 06:42:11;;;;;;;2.85;0.73;;;;;;;15.43;100.00;100018.94;7400329;19;20039;-79
2022/06/11 06:44:37;;;;;;;1.17;0.43;;;;;;;15.51;100.00;100020.00;7393621;19;20106;-79
2022/06/11 06:47:03;;;;;;;5.30;0.50;;;;;;;15.63;100.00;100016.75;7396506;19;20042;-79
2022/06/11 06:49:29;;;;;;;2.17;0.55;;;;;;;15.76;100.00;100014.22;7396267;19;20048;-79
2022/06/11 06:51:56;;;;;;;1.35;0.68;;;;;;;15.73;100.00;100011.66;7399500;19;20015;-79
2022/06/11 06:54:22;;;;;;;0.70;0.52;;;;;;;15.79;100.00;100020.84;7399698;19;20333;-80
2022/06/11 06:56:48;;;;;;;1.33;0.68;;;;;;;15.89;100.00;100010.94;7397154;19;20022;-80
2022/06/11 06:59:15;;;;;;;0.95;0.50;;;;;;;15.99;100.00;100020.63;7397280;19;20014;-79
2022/06/11 07:01:41;;;;;;;2.92;0.90;;;;;;;16.14;100.00;100015.53;7399629;19;20377;-79
2022/06/11 07:04:07;;;;;;;1.85;0.85;;;;;;;16.30;100.00;100011.97;7399005;19;20038;-79
2022/06/11 07:06:34;;;;;;;3.05;0.75;;;;;;;16.55;100.00;100016.59;7411709;19;20025;-80
2022/06/11 07:09:01;;;;;;;5.55;0.50;;;;;;;16.73;100.00;100014.53;7401017;19;20018;-79
2022/06/11 07:11:27;;;;;;;3.95;0.50;;;;;;;17.03;100.00;100021.09;7401526;19;20045;-79
2022/06/11 07:13:53;;;;;;;2.60;0.90;;;;;;;17.29;100.00;100032.78;7394588;19;20094;-81
2022/06/11 07:16:26;;;;;;;2.33;1.17;;;;;;;17.49;100.00;100028.88;7396427;19;20026;-80
2022/06/11 07:18:59;;;;;;;2.05;0.95;;;;;;;17.77;100.00;100033.09;7396583;19;20015;-80
2022/06/11 07:21:30;;;;;;;0.47;0.15;;;;;;;17.94;100.00;100035.81;7397861;19;20025;-80
2022/06/11 07:24:00;;;;;;;1.45;0.55;;;;;;;17.95;100.00;100038.09;7394192;19;20022;-80
2022/06/11 07:26:34;;;;;;;3.33;0.40;;;;;;;18.12;100.00;100041.59;7394002;19;20067;-80
2022/06/11 07:29:09;;;;;;;0.90;0.57;;;;;;;18.25;100.00;100038.16;7394458;19;20010;-80
2022/06/11 07:31:38;;;;;;;2.33;1.08;;;;;;;18.42;100.00;100041.63;7399663;19;20014;-80
2022/06/11 07:34:06;;;;;;;1.08;0.75;;;;;;;18.66;100.00;100036.06;7392674;19;20018;-80
2022/06/11 07:36:33;;;;;;;0.93;0.22;;;;;;;18.54;100.00;100039.47;7395055;19;20018;-80
2022/06/11 07:38:59;;;;;;;1.90;0.40;;;;;;;18.42;100.00;100038.78;7393273;19;20082;-80
2022/06/11 07:41:26;;;;;;;1.48;0.73;;;;;;;18.21;100.00;100042.56;7398448;19;20053;-80
2022/06/11 07:43:52;;;;;;;3.90;0.55;;;;;;;18.03;100.00;100046.78;7393302;19;20014;-80
2022/06/11 07:46:18;;;;;;;2.88;0.73;;;;;;;17.87;100.00;100048.41;7396180;19;20018;-80
2022/06/11 07:48:44;;;;;;;0.43;0.10;;;;;;;17.94;100.00;100053.50;7395024;19;20389;-80
2022/06/11 07:51:11;;;;;;;0.57;0.25;;;;;;;17.89;100.00;100040.19;7393906;19;20014;-80
2022/06/11 07:53:38;;;;;;;2.45;0.20;;;;;;;17.82;100.00;100051.25;7397333;19;20023;-80
2022/06/11 07:56:04;;;;;;;1.23;0.20;;;;;;;17.72;100.00;100042.34;7395170;19;20070;-80
2022/06/11 07:58:31;;;;;;;7.88;0.50;;;;;;;17.67;100.00;100048.75;7394989;19;20495;-79
2022/06/11 08:00:58;;;;;;;2.13;0.35;;;;;;;17.81;100.00;100049.72;7396999;19;20011;-80
2022/06/11 08:03:27;;;;;;;0.55;0.52;;;;;;;18.02;100.00;100054.47;7394905;19;20018;-80
2022/06/11 08:05:54;;;;;;;2.15;0.20;;;;;;;18.56;100.00;100060.22;7393784;19;20018;-80
2022/06/11 08:08:21;;;;;;;3.97;0.85;;;;;;;18.87;100.00;100064.56;7394969;19;20026;-80
2022/06/11 08:10:48;;;;;;;4.93;1.00;;;;;;;18.95;100.00;100059.88;7394594;19;20344;-80
2022/06/11 08:13:14;;;;;;;4.30;0.28;;;;;;;19.11;100.00;100061.75;7393956;19;20014;-80
2022/06/11 08:15:43;;;;;;;0.30;0.30;;;;;;;19.07;100.00;100058.47;7394784;19;20488;-80
2022/06/11 08:18:09;;;;;;;0.70;0.30;;;;;;;18.93;100.00;100056.81;7392817;19;20015;-80
2022/06/11 08:20:36;;;;;;;4.20;0.32;;;;;;;18.75;100.00;100057.53;7394909;19;20018;-79
2022/06/11 08:23:04;;;;;;;0.88;0.15;;;;;;;18.68;100.00;100060.91;7392789;19;20029;-80
2022/06/11 08:25:30;;;;;;;3.00;0.30;;;;;;;18.58;100.00;100059.72;7389046;19;20011;-80
2022/06/11 08:27:57;;;;;;;1.15;0.50;;;;;;;18.73;100.00;100051.63;7392430;19;20014;-80
2022/06/11 08:30:26;;;;;;;4.57;0.50;;;;;;;18.90;100.00;100049.41;7392536;19;20040;-79
2022/06/11 08:32:52;;;;;;;0.30;0.30;;;;;;;19.21;100.00;100050.88;7394043;19;20482;-80
2022/06/11 08:35:22;;;;;;;5.95;0.52;;;;;;;19.74;100.00;100037.91;7391462;19;20535;-80
2022/06/11 08:37:49;;;;;;;0.40;0.40;;;;;;;20.11;100.00;100054.84;7392965;19;20021;-80
2022/06/11 08:40:38;;;;;;;2.17;0.17;;;;;;;20.19;100.00;100050.09;7394621;19;20014;-79
2022/06/11 08:43:19;;;;;;;1.95;0.40;;;;;;;20.58;100.00;100049.50;7391014;19;20032;-80
2022/06/11 08:46:17;;;;;;;16.30;1.05;;;;;;;20.34;100.00;100054.00;7392505;19;20385;-79
2022/06/11 08:48:58;;;;;;;8.55;1.30;;;;;;;20.47;100.00;100058.16;7391858;19;20572;-80
2022/06/11 08:51:27;;;;;;;3.22;0.38;;;;;;;20.34;100.00;100056.84;7394915;19;20021;-80
2022/06/11 08:53:58;;;;;;;7.93;0.40;;;;;;;20.83;100.00;100057.31;7393795;19;20081;-80
2022/06/11 08:57:01;;;;;;;5.93;0.52;;;;;;;20.87;100.00;100052.09;7391966;19;20078;-80
2022/06/11 08:59:39;;;;;;;2.95;0.13;;;;;;;20.67;100.00;100060.41;7390933;19;20022;-80
2022/06/11 09:02:26;;;;;;;0.20;0.20;;;;;;;20.60;100.00;100061.81;7394020;19;20022;-80
2022/06/11 09:05:30;;;;;;;2.67;0.57;;;;;;;20.38;100.00;100056.50;7390263;19;20041;-80
2022/06/11 09:08:20;;;;;;;1.88;0.63;;;;;;;20.39;100.00;100053.16;7392071;19;20040;-80
2022/06/11 09:10:55;;;;;;;1.48;0.75;;;;;;;20.65;100.00;100051.69;7390909;19;20015;-80
2022/06/11 09:13:33;;;;;;;1.88;0.50;;;;;;;20.64;100.00;100050.94;7392222;19;20022;-80
2022/06/11 09:16:27;;;;;;;1.05;0.47;;;;;;;20.40;100.00;100054.69;7392612;19;20018;-80
2022/06/11 09:19:08;;;;;;;2.55;0.25;;;;;;;20.68;100.00;100051.38;7392525;19;20074;-80
2022/06/11 09:21:47;;;;;;;1.30;0.20;;;;;;;20.93;100.00;100049.91;7395012;19;20042;-81
2022/06/11 09:24:20;;;;;;;0.60;0.30;;;;;;;21.38;100.00;100049.06;7390145;19;20018;-80
2022/06/11 09:27:00;;;;;;;1.25;0.32;;;;;;;21.86;100.00;100062.78;7392423;19;20077;-81
2022/06/11 09:30:02;;;;;;;1.60;0.20;;;;;;;21.74;100.00;100069.97;7390725;19;20014;-81
2022/06/11 09:32:36;;;;;;;2.85;0.60;;;;;;;21.49;100.00;100071.50;7392602;19;20031;-81
2022/06/11 09:35:14;;;;;;;1.10;0.28;;;;;;;21.12;100.00;100073.25;7391001;19;20039;-80
2022/06/11 09:37:46;;;;;;;3.45;0.10;;;;;;;21.61;100.00;100078.50;7396150;19;20025;-80
2022/06/11 09:40:34;;;;;;;0.63;0.10;;;;;;;21.85;100.00;100070.50;7399123;19;20329;-80
2022/06/11 09:43:10;;;;;;;0.70;0.28;;;;;;;21.93;100.00;100079.13;7398784;19;20109;-80
2022/06/11 09:45:57;;;;;;;4.85;0.22;;;;;;;21.57;100.00;100083.75;7397731;19;20382;-80
2022/06/11 09:48:52;;;;;;;1.42;0.15;;;;;;;21.63;100.00;100076.66;7398194;19;20022;-80
2022/06/11 09:51:42;;;;;;;0.20;0.10;;;;;;;21.66;100.00;100075.53;7393034;19;20018;-80
2022/06/11 09:54:24;;;;;;;1.25;0.57;;;;;;;21.48;100.00;100084.19;7399140;19;20424;-80
2022/06/11 09:57:08;;;;;;;1.17;0.30;;;;;;;21.42;100.00;100077.88;7397052;19;20404;-80
2022/06/11 09:59:42;;;;;;;2.60;0.60;;;;;;;21.75;100.00;100077.16;7398990;19;20106;-80
2022/06/11 10:02:09;;;;;;;2.10;0.52;;;;;;;21.73;100.00;100074.09;7403639;19;20011;-80
2022/06/11 10:04:42;;;;;;;3.03;0.20;;;;;;;21.58;100.00;100085.25;7397191;19;20396;-80
2022/06/11 10:07:16;;;;;;;2.83;0.75;;;;;;;21.68;100.00;100084.25;7398940;19;20010;-80
2022/06/11 10:09:55;;;;;;;3.03;0.50;;;;;;;21.48;100.00;100084.19;7401167;19;20051;-79
2022/06/11 10:12:21;;;;;;;3.22;0.20;;;;;;;21.45;100.00;100082.41;7413606;19;20019;-80
2022/06/11 10:14:54;;;;;;;0.57;0.10;;;;;;;21.63;100.00;100092.88;7398587;19;20073;-80
2022/06/11 10:17:27;;;;;;;0.57;0.13;;;;;;;21.44;100.00;100092.25;7400106;19;20026;-79
2022/06/11 10:20:08;;;;;;;4.30;0.70;;;;;;;20.95;100.00;100089.78;7398613;19;20688;-80
2022/06/11 10:22:47;;;;;;;4.85;0.30;;;;;;;20.65;100.00;100086.44;7397305;19;20019;-80
2022/06/11 10:25:22;;;;;;;0.35;0.22;;;;;;;20.68;100.00;100096.66;7395020;19;20083;-80
2022/06/11 10:27:55;;;;;;;2.70;0.38;;;;;;;20.75;100.00;100096.03;7397190;19;20037;-80
2022/06/11 10:30:45;;;;;;;1.63;0.25;;;;;;;20.87;100.00;100096.63;7395686;19;20014;-80
2022/06/11 10:33:19;;;;;;;3.20;0.50;;;;;;;20.88;100.00;100104.56;7397778;19;20473;-80
2022/06/11 10:35:54;;;;;;;0.60;0.10;;;;;;;21.25;100.00;100103.66;7398571;19;20007;-80
2022/06/11 10:38:49;;;;;;;1.90;0.50;;;;;;;21.36;100.00;100099.84;7398014;19;20022;-80
2022/06/11 10:41:30;;;;;;;0.20;0.05;;;;;;;21.42;100.00;100094.88;7399796;19;20009;-80
2022/06/11 10:44:14;;;;;;;3.50;0.40;;;;;;;21.26;100.00;100096.72;7395627;19;20033;-80
2022/06/11 10:46:40;;;;;;;1.00;0.05;;;;;;;21.30;100.00;100099.97;7396709;19;20111;-80
2022/06/11 10:49:13;;;;;;;1.17;0.47;;;;;;;21.92;100.00;100103.09;7395138;19;20475;-81
2022/06/11 10:51:44;;;;;;;4.13;0.25;;;;;;;21.97;100.00;100098.63;7399389;19;20035;-80
2022/06/11 10:54:17;;;;;;;4.35;0.28;;;;;;;21.70;100.00;100100.72;7396198;19;20025;-79
2022/06/11 10:56:57;;;;;;;1.05;0.20;;;;;;;21.40;100.00;100097.44;7398092;19;20037;-81
2022/06/11 10:59:35;;;;;;;3.17;0.20;;;;;;;21.31;100.00;100093.00;7396359;19;20451;-80
2022/06/11 11:02:18;;;;;;;7.32;0.30;;;;;;;21.52;100.00;100093.09;7399083;19;20023;-80
2022/06/11 11:04:54;;;;;;;0.22;0.00;;;;;;;21.64;100.00;100094.41;7394982;19;20011;-80
2022/06/11 11:07:24;;;;;;;1.65;0.20;;;;;;;21.68;100.00;100089.16;7396306;19;20018;-80
2022/06/11 11:09:56;;;;;;;2.78;0.38;;;;;;;21.47;100.00;100088.31;7397837;19;20015;-80
2022/06/11 11:12:22;;;;;;;8.25;1.23;;;;;;;21.35;100.00;100090.63;7405602;19;20050;-80
2022/06/11 11:15:01;;;;;;;1.05;0.28;;;;;;;21.26;100.00;100099.53;7413926;19;20038;-79
2022/06/11 11:17:31;;;;;;;3.20;0.30;;;;;;;21.10;100.00;100103.44;7410971;19;20015;-81
2022/06/11 11:20:29;;;;;;;1.20;0.43;;;;;;;20.99;100.00;100090.22;7408273;19;20027;-81
2022/06/11 11:23:00;;;;;;;0.73;0.38;;;;;;;21.02;100.00;100091.97;7399944;19;20018;-80
2022/06/11 11:25:35;;;;;;;3.05;0.22;;;;;;;21.11;100.00;100100.06;7398865;19;20018;-80
2022/06/11 11:28:03;;;;;;;1.45;0.28;;;;;;;21.21;100.00;100091.13;7397514;19;20033;-80
2022/06/11 11:30:39;;;;;;;2.45;0.30;;;;;;;21.65;100.00;100090.25;7397723;19;20029;-80
2022/06/11 11:33:28;;;;;;;0.25;0.15;;;;;;;22.13;100.00;100080.50;7395593;19;20049;-80
2022/06/11 11:36:00;;;;;;;2.72;0.20;;;;;;;22.91;100.00;100077.31;7396981;19;20031;-80
2022/06/11 11:38:28;;;;;;;1.38;0.25;;;;;;;23.14;100.00;100085.97;7395026;19;20023;-80
2022/06/11 11:41:00;;;;;;;3.38;0.22;;;;;;;22.78;100.00;100082.31;7396274;19;20086;-80
2022/06/11 11:43:43;;;;;;;2.20;0.20;;;;;;;22.83;100.00;100087.81;7394587;19;20022;-80
2022/06/11 11:46:19;;;;;;;3.00;0.20;;;;;;;23.08;100.00;100076.84;7395309;19;20014;-80